createdAt,value
2019-03-13T00:01:53.628Z,5.90
2019-03-13T00:04:55.919Z,5.90
2019-03-13T00:07:58.205Z,5.90
2019-03-13T00:11:00.438Z,5.90
2019-03-13T00:14:02.698Z,5.90
2019-03-13T00:17:04.960Z,5.80
2019-03-13T00:20:07.573Z,5.80
2019-03-13T00:23:09.869Z,5.80
2019-03-13T00:26:12.107Z,5.90
2019-03-13T00:29:14.386Z,5.90
2019-03-13T00:32:16.619Z,5.90
2019-03-13T00:35:18.860Z,5.90
2019-03-13T00:38:21.099Z,5.90
2019-03-13T00:41:23.471Z,5.90
2019-03-13T00:44:25.680Z,5.90
2019-03-13T00:47:27.955Z,5.90
2019-03-13T00:50:30.767Z,5.80
2019-03-13T00:53:33.047Z,5.80
2019-03-13T00:56:35.281Z,5.80
2019-03-13T00:59:37.511Z,5.80
2019-03-13T01:02:41.892Z,5.70
2019-03-13T01:05:48.683Z,5.70
2019-03-13T01:08:50.968Z,5.70
2019-03-13T01:11:53.272Z,5.70
2019-03-13T01:14:55.487Z,5.70
2019-03-13T01:17:57.735Z,5.70
2019-03-13T01:21:00.004Z,5.70
2019-03-13T01:24:02.252Z,5.80
2019-03-13T01:27:04.520Z,6.10
2019-03-13T01:30:06.923Z,6.20
2019-03-13T01:33:12.045Z,6.50
2019-03-13T01:36:14.315Z,6.80
2019-03-13T01:39:16.562Z,7.10
2019-03-13T01:42:18.829Z,7.40
2019-03-13T01:45:21.063Z,7.70
2019-03-13T01:48:23.321Z,7.80
2019-03-13T01:51:25.596Z,8.00
2019-03-13T01:54:27.820Z,8.20
2019-03-13T01:57:30.060Z,8.30
2019-03-13T02:00:32.311Z,8.50
2019-03-13T02:03:34.559Z,8.50
2019-03-13T02:06:36.775Z,8.70
2019-03-13T02:09:38.992Z,8.70
2019-03-13T02:12:41.268Z,8.70
2019-03-13T02:15:43.518Z,8.70
2019-03-13T02:18:45.811Z,8.70
2019-03-13T02:21:48.032Z,8.70
2019-03-13T02:24:50.282Z,8.80
2019-03-13T02:27:52.533Z,8.70
2019-03-13T02:30:54.799Z,8.70
2019-03-13T02:33:57.047Z,8.70
2019-03-13T02:36:59.264Z,8.70
2019-03-13T02:40:01.503Z,8.70
2019-03-13T02:43:03.736Z,8.70
2019-03-13T02:46:05.997Z,8.70
2019-03-13T02:49:08.200Z,8.70
2019-03-13T02:52:10.518Z,8.60
2019-03-13T02:55:12.777Z,8.60
2019-03-13T02:58:15.009Z,8.50
2019-03-13T03:01:23.381Z,8.50
2019-03-13T03:04:25.650Z,8.40
2019-03-13T03:07:27.887Z,8.20
2019-03-13T03:10:30.138Z,8.10
2019-03-13T03:13:32.426Z,8.00
2019-03-13T03:16:34.691Z,7.90
2019-03-13T03:19:36.933Z,7.80
2019-03-13T03:22:39.210Z,7.80
2019-03-13T03:25:41.465Z,7.60
2019-03-13T03:28:43.998Z,7.40
2019-03-13T03:31:46.221Z,7.20
2019-03-13T03:34:48.453Z,7.00
2019-03-13T03:37:50.680Z,6.80
2019-03-13T03:40:52.966Z,6.80
2019-03-13T03:43:55.200Z,6.60
2019-03-13T03:46:57.475Z,6.50
2019-03-13T03:53:27.495Z,6.40
2019-03-13T03:56:29.777Z,6.30
2019-03-13T03:59:32.061Z,6.30
2019-03-13T04:02:34.339Z,6.20
2019-03-13T04:05:36.623Z,6.10
2019-03-13T04:08:38.950Z,6.10
2019-03-13T04:11:41.243Z,6.00
2019-03-13T04:14:43.492Z,6.00
2019-03-13T04:17:45.784Z,5.90
2019-03-13T04:20:48.033Z,5.90
2019-03-13T04:23:50.267Z,5.90
2019-03-13T04:26:52.499Z,5.90
2019-03-13T04:29:54.741Z,5.80
2019-03-13T04:32:57.005Z,5.80
2019-03-13T04:35:59.251Z,5.80
2019-03-13T04:39:01.475Z,5.80
2019-03-13T04:42:03.716Z,5.70
2019-03-13T04:45:06.100Z,5.70
2019-03-13T04:48:08.344Z,5.70
2019-03-13T04:51:10.559Z,5.70
2019-03-13T04:54:12.836Z,5.70
2019-03-13T04:57:15.068Z,5.60
2019-03-13T05:00:17.321Z,5.60
2019-03-13T05:03:19.585Z,5.50
2019-03-13T05:06:22.411Z,5.50
2019-03-13T05:09:34.256Z,5.50
2019-03-13T05:12:36.480Z,5.50
2019-03-13T05:15:38.746Z,5.50
2019-03-13T05:18:41.059Z,5.50
2019-03-13T05:21:43.312Z,5.40
2019-03-13T05:24:45.502Z,5.50
2019-03-13T05:27:47.745Z,5.50
2019-03-13T05:30:52.982Z,5.40
2019-03-13T05:33:52.318Z,5.30
2019-03-13T05:36:54.529Z,5.40
2019-03-13T05:39:56.791Z,5.30
2019-03-13T05:42:59.083Z,5.30
2019-03-13T05:46:01.350Z,5.30
2019-03-13T05:49:03.622Z,5.40
2019-03-13T05:52:05.906Z,5.40
2019-03-13T05:55:08.171Z,5.30
2019-03-13T05:58:10.418Z,5.30
2019-03-13T06:01:12.642Z,5.30
2019-03-13T06:04:14.837Z,5.30
2019-03-13T06:07:17.042Z,5.30
2019-03-13T06:10:19.327Z,5.30
2019-03-13T06:13:21.539Z,5.30
2019-03-13T06:16:23.727Z,5.20
2019-03-13T06:19:25.965Z,5.10
2019-03-13T06:22:28.175Z,5.10
2019-03-13T06:25:30.398Z,5.10
2019-03-13T06:28:32.592Z,5.00
2019-03-13T06:31:34.867Z,5.00
2019-03-13T06:34:37.059Z,4.90
2019-03-13T06:37:39.287Z,4.80
2019-03-13T06:40:41.548Z,4.80
2019-03-13T06:43:43.779Z,4.70
2019-03-13T06:46:46.037Z,4.70
2019-03-13T06:49:48.238Z,4.60
2019-03-13T06:52:50.499Z,4.60
2019-03-13T06:55:52.726Z,4.50
2019-03-13T06:59:00.695Z,4.50
2019-03-13T07:02:10.542Z,4.40
2019-03-13T07:05:23.364Z,4.40
2019-03-13T07:08:33.987Z,4.40
2019-03-13T07:11:43.684Z,4.40
2019-03-13T07:14:51.339Z,4.40
2019-03-13T07:18:00.992Z,4.40
2019-03-13T07:23:09.808Z,4.50
2019-03-13T07:26:17.633Z,4.50
2019-03-13T07:29:24.457Z,4.60
2019-03-13T07:32:32.267Z,4.60
2019-03-13T07:35:45.876Z,4.70
2019-03-13T07:38:54.609Z,4.70
2019-03-13T07:42:02.596Z,4.70
2019-03-13T07:45:10.701Z,4.70
2019-03-13T07:49:26.587Z,4.80
2019-03-13T07:54:39.527Z,4.80
2019-03-13T07:57:56.265Z,4.90
2019-03-13T08:01:03.147Z,4.90
2019-03-13T08:04:20.002Z,5.00
2019-03-13T08:07:35.781Z,5.00
2019-03-13T08:10:43.735Z,5.10
2019-03-13T08:13:52.625Z,5.10
2019-03-13T08:16:59.491Z,5.10
2019-03-13T08:22:09.291Z,5.10
2019-03-13T08:26:22.151Z,5.10
2019-03-13T08:29:32.000Z,5.10
2019-03-13T08:32:40.039Z,5.10
2019-03-13T08:35:49.717Z,5.20
2019-03-13T08:39:59.604Z,5.20
2019-03-13T08:44:13.479Z,5.20
2019-03-13T08:47:23.183Z,5.30
2019-03-13T08:52:32.751Z,5.40
2019-03-13T08:55:39.556Z,5.50
2019-03-13T08:58:46.349Z,5.70
2019-03-13T09:01:53.232Z,5.80
2019-03-13T09:06:03.161Z,6.00
2019-03-13T09:11:27.516Z,6.10
2019-03-13T09:14:34.219Z,6.30
2019-03-13T09:17:47.848Z,6.50
2019-03-13T09:21:03.467Z,6.60
2019-03-13T09:24:12.243Z,6.70
2019-03-13T09:27:20.000Z,6.80
2019-03-13T09:30:27.584Z,6.90
2019-03-13T09:33:35.323Z,7.00
2019-03-13T09:36:43.147Z,7.00
2019-03-13T09:39:50.815Z,7.00
2019-03-13T09:43:04.671Z,7.00
2019-03-13T09:46:21.338Z,7.00
2019-03-13T09:51:33.168Z,7.00
2019-03-13T09:54:40.886Z,7.10
2019-03-13T09:57:48.852Z,7.20
2019-03-13T10:00:58.481Z,7.40
2019-03-13T10:04:08.262Z,7.60
2019-03-13T10:08:17.972Z,7.60
2019-03-13T10:11:24.800Z,7.60
2019-03-13T10:14:46.572Z,7.80
2019-03-13T10:17:56.220Z,8.00
2019-03-13T10:21:06.964Z,8.00
2019-03-13T10:24:18.727Z,8.10
2019-03-13T10:27:29.357Z,8.00
2019-03-13T10:30:37.203Z,8.00
2019-03-13T10:33:50.987Z,7.90
2019-03-13T10:36:58.974Z,7.90
2019-03-13T10:40:05.835Z,7.90
2019-03-13T10:43:15.638Z,8.00
2019-03-13T10:46:27.584Z,8.00
2019-03-13T10:49:36.721Z,8.00
2019-03-13T10:52:43.599Z,8.00
2019-03-13T10:55:51.390Z,8.10
2019-03-13T10:59:02.053Z,8.00
2019-03-13T11:03:14.709Z,8.10
2019-03-13T11:06:24.470Z,8.10
2019-03-13T11:09:31.509Z,8.10
2019-03-13T11:12:48.520Z,8.10
2019-03-13T11:15:54.340Z,8.10
2019-03-13T11:19:05.958Z,8.10
2019-03-13T11:22:15.675Z,8.10
2019-03-13T11:25:26.375Z,8.10
2019-03-13T11:30:38.146Z,8.10
2019-03-13T11:34:02.976Z,8.30
2019-03-13T11:37:10.866Z,7.90
2019-03-13T11:40:50.627Z,7.40
2019-03-13T11:44:02.268Z,7.00
2019-03-13T11:47:42.780Z,6.80
2019-03-13T11:50:47.828Z,6.70
2019-03-13T11:53:56.627Z,6.60
2019-03-13T11:57:07.283Z,6.50
2019-03-13T12:01:17.532Z,6.50
2019-03-13T12:04:24.896Z,6.50
2019-03-13T12:07:46.637Z,6.40
2019-03-13T12:10:53.552Z,6.40
2019-03-13T12:16:06.434Z,6.50
2019-03-13T12:19:21.288Z,6.50
2019-03-13T12:22:28.112Z,6.60
2019-03-13T12:25:43.987Z,6.60
2019-03-13T12:28:51.882Z,6.60
2019-03-13T12:31:58.744Z,6.70
2019-03-13T12:35:12.410Z,6.70
2019-03-13T12:38:22.125Z,6.90
2019-03-13T12:41:29.952Z,7.00
2019-03-13T12:44:36.775Z,7.10
2019-03-13T12:47:46.569Z,7.20
2019-03-13T12:50:56.250Z,7.20
2019-03-13T12:54:12.298Z,7.20
2019-03-13T12:57:20.078Z,7.30
2019-03-13T13:00:26.885Z,7.20
2019-03-13T13:03:35.527Z,7.20
2019-03-13T13:07:00.393Z,7.20
2019-03-13T13:10:10.262Z,7.00
2019-03-13T13:13:17.110Z,6.90
2019-03-13T13:16:27.731Z,6.90
2019-03-13T13:19:29.980Z,6.90
2019-03-13T13:22:32.240Z,6.90
2019-03-13T13:25:34.456Z,6.80
2019-03-13T13:28:36.675Z,6.80
2019-03-13T13:31:38.893Z,6.80
2019-03-13T13:34:41.223Z,6.80
2019-03-13T13:37:43.423Z,6.80
2019-03-13T13:40:45.655Z,6.80
2019-03-13T13:43:47.867Z,6.80
2019-03-13T13:46:50.088Z,6.80
2019-03-13T13:49:59.594Z,6.80
2019-03-13T13:52:54.613Z,6.80
2019-03-13T13:55:56.930Z,6.70
2019-03-13T13:58:59.172Z,6.80
2019-03-13T14:02:01.363Z,6.80
2019-03-13T14:05:03.789Z,6.70
2019-03-13T14:08:06.064Z,6.60
2019-03-13T14:11:08.304Z,6.50
2019-03-13T14:14:10.556Z,6.50
2019-03-13T14:17:12.930Z,6.40
2019-03-13T14:20:15.330Z,6.40
2019-03-13T14:23:17.544Z,6.30
2019-03-13T14:26:19.783Z,6.30
2019-03-13T14:29:22.023Z,6.40
2019-03-13T14:32:24.303Z,6.40
2019-03-13T14:35:26.559Z,6.40
2019-03-13T14:38:28.993Z,6.40
2019-03-13T14:41:31.259Z,6.30
2019-03-13T14:44:33.501Z,6.40
2019-03-13T14:47:35.811Z,6.40
2019-03-13T14:50:38.112Z,6.40
2019-03-13T14:53:40.311Z,6.40
2019-03-13T14:56:42.541Z,6.40
2019-03-13T14:59:44.769Z,6.40
2019-03-13T15:02:47.040Z,6.40
2019-03-13T15:05:49.299Z,6.30
2019-03-13T15:08:51.795Z,6.20
2019-03-13T15:11:54.015Z,6.20
2019-03-13T15:14:56.187Z,6.10
2019-03-13T15:17:58.396Z,6.10
2019-03-13T15:21:00.623Z,6.00
2019-03-13T15:24:02.894Z,6.00
2019-03-13T15:27:05.092Z,6.00
2019-03-13T15:30:11.255Z,6.00
2019-03-13T15:33:13.491Z,5.90
2019-03-13T15:36:15.779Z,5.90
2019-03-13T15:39:17.989Z,5.90
2019-03-13T15:42:20.220Z,5.80
2019-03-13T15:45:22.476Z,5.90
2019-03-13T15:48:24.719Z,5.90
2019-03-13T15:51:26.935Z,5.90
2019-03-13T15:54:29.235Z,5.90
2019-03-13T15:57:31.467Z,6.00
2019-03-13T16:00:33.702Z,5.90
2019-03-13T16:03:35.942Z,5.90
2019-03-13T16:06:38.136Z,5.90
2019-03-13T16:09:40.391Z,5.80
2019-03-13T16:12:42.636Z,5.80
2019-03-13T16:15:46.216Z,5.80
2019-03-13T16:18:47.375Z,5.70
2019-03-13T16:21:49.617Z,5.70
2019-03-13T16:24:51.860Z,5.60
2019-03-13T16:27:54.110Z,5.60
2019-03-13T16:30:56.352Z,5.60
2019-03-13T16:33:58.631Z,5.70
2019-03-13T16:37:00.874Z,5.70
2019-03-13T16:40:03.211Z,5.60
2019-03-13T16:43:05.464Z,5.70
2019-03-13T16:46:07.693Z,5.60
2019-03-13T16:49:10.100Z,5.60
2019-03-13T16:52:12.557Z,5.60
2019-03-13T16:55:16.571Z,5.70
2019-03-13T16:58:18.917Z,5.70
2019-03-13T17:01:21.303Z,5.60
2019-03-13T17:04:23.823Z,5.50
2019-03-13T17:07:26.246Z,5.30
2019-03-13T17:10:28.522Z,5.20
2019-03-13T17:13:30.815Z,5.10
2019-03-13T17:16:33.032Z,5.10
2019-03-13T17:19:35.312Z,5.10
2019-03-13T17:22:37.840Z,4.90
2019-03-13T17:25:40.098Z,4.90
2019-03-13T17:28:42.298Z,4.80
2019-03-13T17:31:44.514Z,4.80
2019-03-13T17:34:46.935Z,4.70
2019-03-13T17:37:49.212Z,4.60
2019-03-13T17:40:51.473Z,4.60
2019-03-13T17:43:53.722Z,4.60
2019-03-13T17:46:55.936Z,4.60
2019-03-13T17:49:58.142Z,4.50
2019-03-13T17:53:00.357Z,4.50
2019-03-13T17:56:02.623Z,4.50
2019-03-13T17:59:04.965Z,4.40
2019-03-13T18:02:07.284Z,4.40
2019-03-13T18:05:09.633Z,4.30
2019-03-13T18:08:11.933Z,4.40
2019-03-13T18:11:14.191Z,4.30
2019-03-13T18:14:16.501Z,4.30
2019-03-13T18:17:18.683Z,4.30
2019-03-13T18:20:20.990Z,4.20
2019-03-13T18:23:23.228Z,4.20
2019-03-13T18:26:25.569Z,4.20
2019-03-13T18:29:28.101Z,4.20
2019-03-13T18:32:41.231Z,4.20
2019-03-13T18:35:32.694Z,4.20
2019-03-13T18:38:34.952Z,4.10
2019-03-13T18:41:37.187Z,4.10
2019-03-13T18:44:39.396Z,4.10
2019-03-13T18:47:41.744Z,4.00
2019-03-13T18:50:44.188Z,4.00
2019-03-13T18:53:46.430Z,4.00
2019-03-13T18:56:48.660Z,4.00
2019-03-13T18:59:50.884Z,4.00
2019-03-13T19:02:53.226Z,3.90
2019-03-13T19:05:55.456Z,3.90
2019-03-13T19:08:57.705Z,3.90
2019-03-13T19:11:59.899Z,3.90
2019-03-13T19:15:02.160Z,3.90
2019-03-13T19:18:04.387Z,3.80
2019-03-13T19:21:06.588Z,3.80
2019-03-13T19:24:08.791Z,3.80
2019-03-13T19:27:11.231Z,3.80
2019-03-13T19:30:16.099Z,3.80
2019-03-13T19:33:18.440Z,3.80
2019-03-13T19:36:20.661Z,3.80
2019-03-13T19:39:22.917Z,3.80
2019-03-13T19:42:25.114Z,3.80
2019-03-13T19:45:30.005Z,3.80
2019-03-13T19:48:32.221Z,3.90
2019-03-13T19:51:34.652Z,3.90
2019-03-13T19:54:36.935Z,3.90
2019-03-13T19:57:39.159Z,3.90
2019-03-13T20:00:41.373Z,3.90
2019-03-13T20:03:54.738Z,4.00
2019-03-13T20:06:45.903Z,4.00
2019-03-13T20:09:48.111Z,4.00
2019-03-13T20:12:50.343Z,4.00
2019-03-13T20:15:52.600Z,4.10
2019-03-13T20:18:54.826Z,4.10
2019-03-13T20:21:57.083Z,4.10
2019-03-13T20:24:59.273Z,4.10
2019-03-13T20:28:01.496Z,4.10
2019-03-13T20:31:03.805Z,4.20
2019-03-13T20:34:06.015Z,4.20
2019-03-13T20:37:08.236Z,4.20
2019-03-13T20:40:12.819Z,4.30
2019-03-13T20:43:15.032Z,4.20
2019-03-13T20:46:17.313Z,4.30
2019-03-13T20:49:19.510Z,4.30
2019-03-13T20:52:21.754Z,4.30
2019-03-13T20:55:24.266Z,4.30
2019-03-13T20:58:26.511Z,4.40
2019-03-13T21:01:28.687Z,4.40
2019-03-13T21:04:30.975Z,4.50
2019-03-13T21:07:33.199Z,4.50
2019-03-13T21:10:35.432Z,4.50
2019-03-13T21:13:37.734Z,4.50
2019-03-13T21:16:39.964Z,4.50
2019-03-13T21:19:42.155Z,4.50
2019-03-13T21:22:44.415Z,4.50
2019-03-13T21:25:46.673Z,4.50
2019-03-13T21:28:48.895Z,4.50
2019-03-13T21:31:51.764Z,4.50
2019-03-13T21:34:54.028Z,4.50
2019-03-13T21:37:56.244Z,4.40
2019-03-13T21:40:58.619Z,4.40
2019-03-13T21:44:00.843Z,4.40
2019-03-13T21:47:03.103Z,4.30
2019-03-13T21:50:06.503Z,4.30
2019-03-13T21:53:08.819Z,4.30
2019-03-13T21:56:11.141Z,4.30
2019-03-13T21:59:13.465Z,4.30
2019-03-13T22:02:15.804Z,4.30
2019-03-13T22:05:25.617Z,4.20
2019-03-13T22:08:20.356Z,4.20
2019-03-13T22:11:22.653Z,4.20
2019-03-13T22:14:24.883Z,4.20
2019-03-13T22:17:27.108Z,4.20
2019-03-13T22:20:29.344Z,4.20
2019-03-13T22:23:31.575Z,4.20
2019-03-13T22:26:33.804Z,4.10
2019-03-13T22:29:36.332Z,4.10
2019-03-13T22:32:38.553Z,4.10
2019-03-13T22:35:40.747Z,4.10
2019-03-13T22:38:43.027Z,4.10
2019-03-13T22:41:45.293Z,4.10
2019-03-13T22:44:47.547Z,4.00
2019-03-13T22:47:49.787Z,4.00
2019-03-13T22:50:52.033Z,4.00
2019-03-13T22:53:54.299Z,3.90
2019-03-13T22:56:56.543Z,3.90
2019-03-13T22:59:58.766Z,3.90
2019-03-13T23:03:00.965Z,3.90
2019-03-13T23:06:03.321Z,3.80
2019-03-13T23:09:06.039Z,3.80
2019-03-13T23:12:08.281Z,3.90
2019-03-13T23:15:10.541Z,3.90
2019-03-13T23:18:12.804Z,3.90
2019-03-13T23:21:15.010Z,3.90
2019-03-13T23:24:17.276Z,3.90
2019-03-13T23:27:19.484Z,3.90
2019-03-13T23:30:21.720Z,3.90
2019-03-13T23:33:23.987Z,3.90
2019-03-13T23:36:26.193Z,3.90
2019-03-13T23:39:28.403Z,4.00
2019-03-13T23:42:30.628Z,4.00
2019-03-13T23:45:32.835Z,4.00
2019-03-13T23:48:35.043Z,4.00
2019-03-13T23:51:37.288Z,4.00
2019-03-13T23:54:39.480Z,4.10
2019-03-13T23:57:41.720Z,4.10
